Terminal Aerodrome Forecast
Issued by NWS

Home | Current Version | Previous Version | Text Only | Print | Product List | Glossary On
Versions: 1 2 3 4 5 6 7 8 9 10 11 12 13 14 15 16 17 18 19 20 21 22
000
FTUS43 KBIS 252330
TAFJMS
TAF
KJMS 252330Z 2600/2624 02007KT P6SM VCSH SCT015 OVC020
     FM260300 02004KT P6SM -SHRA SCT015 OVC025
     FM260600 36004KT P6SM VCSH SCT006 OVC011
     FM261700 32005KT P6SM VCSH OVC025
     FM262100 31006KT P6SM SCT025 BKN035=

USA.gov is the U.S. government's official web portal to all federal, state and local government web resources and services.